sensor_id;sensor_type;location;lat;lon;timestamp;temperature;humidity
55083;DHT22;40978;52.850;6.506;2023-04-24T00:00:12;9.70;99.90
55083;DHT22;40978;52.850;6.506;2023-04-24T00:02:41;9.70;99.90
55083;DHT22;40978;52.850;6.506;2023-04-24T00:05:07;9.70;99.90
55083;DHT22;40978;52.850;6.506;2023-04-24T00:07:34;9.80;99.90
55083;DHT22;40978;52.850;6.506;2023-04-24T00:10:00;9.70;99.90
55083;DHT22;40978;52.850;6.506;2023-04-24T00:12:26;9.80;99.90
55083;DHT22;40978;52.850;6.506;2023-04-24T00:14:52;9.80;99.90
55083;DHT22;40978;52.850;6.506;2023-04-24T00:17:18;9.80;99.90
55083;DHT22;40978;52.850;6.506;2023-04-24T00:19:49;9.70;99.90
55083;DHT22;40978;52.850;6.506;2023-04-24T00:22:27;9.80;99.90
55083;DHT22;40978;52.850;6.506;2023-04-24T00:24:54;9.80;99.90
55083;DHT22;40978;52.850;6.506;2023-04-24T00:27:19;9.80;99.90
55083;DHT22;40978;52.850;6.506;2023-04-24T00:29:45;9.80;99.90
55083;DHT22;40978;52.850;6.506;2023-04-24T00:32:11;9.80;99.90
55083;DHT22;40978;52.850;6.506;2023-04-24T00:34:37;9.80;99.90
55083;DHT22;40978;52.850;6.506;2023-04-24T00:37:03;9.80;99.90
55083;DHT22;40978;52.850;6.506;2023-04-24T00:39:28;9.80;99.90
55083;DHT22;40978;52.850;6.506;2023-04-24T00:41:54;9.80;99.90
55083;DHT22;40978;52.850;6.506;2023-04-24T00:44:20;9.80;99.90
55083;DHT22;40978;52.850;6.506;2023-04-24T00:46:47;9.80;99.90
55083;DHT22;40978;52.850;6.506;2023-04-24T00:49:18;9.80;99.90
55083;DHT22;40978;52.850;6.506;2023-04-24T00:51:44;9.80;99.90
55083;DHT22;40978;52.850;6.506;2023-04-24T00:54:12;9.80;99.90
55083;DHT22;40978;52.850;6.506;2023-04-24T00:56:37;9.80;99.90
55083;DHT22;40978;52.850;6.506;2023-04-24T00:59:04;9.80;99.90
55083;DHT22;40978;52.850;6.506;2023-04-24T01:01:30;9.80;99.90
55083;DHT22;40978;52.850;6.506;2023-04-24T01:03:56;9.80;99.90
55083;DHT22;40978;52.850;6.506;2023-04-24T01:06:23;9.80;99.90
55083;DHT22;40978;52.850;6.506;2023-04-24T01:08:52;9.80;99.90
55083;DHT22;40978;52.850;6.506;2023-04-24T01:11:19;9.80;99.90
55083;DHT22;40978;52.850;6.506;2023-04-24T01:13:47;9.90;99.90
55083;DHT22;40978;52.850;6.506;2023-04-24T01:16:14;9.80;99.90
55083;DHT22;40978;52.850;6.506;2023-04-24T01:18:40;9.90;99.90
55083;DHT22;40978;52.850;6.506;2023-04-24T01:21:08;9.90;99.90
55083;DHT22;40978;52.850;6.506;2023-04-24T01:23:34;9.90;99.90
55083;DHT22;40978;52.850;6.506;2023-04-24T01:26:00;9.90;99.90
55083;DHT22;40978;52.850;6.506;2023-04-24T01:28:26;9.90;99.90
55083;DHT22;40978;52.850;6.506;2023-04-24T01:30:52;9.90;99.90
55083;DHT22;40978;52.850;6.506;2023-04-24T01:33:21;9.90;99.90
55083;DHT22;40978;52.850;6.506;2023-04-24T01:35:47;9.90;99.90
55083;DHT22;40978;52.850;6.506;2023-04-24T01:38:13;9.90;99.90
55083;DHT22;40978;52.850;6.506;2023-04-24T01:40:39;10.00;99.90
55083;DHT22;40978;52.850;6.506;2023-04-24T01:43:05;10.00;99.90
55083;DHT22;40978;52.850;6.506;2023-04-24T01:45:31;10.00;99.90
55083;DHT22;40978;52.850;6.506;2023-04-24T01:47:57;10.00;99.90
55083;DHT22;40978;52.850;6.506;2023-04-24T01:50:23;10.00;99.90
55083;DHT22;40978;52.850;6.506;2023-04-24T01:52:48;10.00;99.90
55083;DHT22;40978;52.850;6.506;2023-04-24T01:55:14;10.00;99.90
55083;DHT22;40978;52.850;6.506;2023-04-24T01:57:40;10.00;99.90
55083;DHT22;40978;52.850;6.506;2023-04-24T02:00:06;10.00;99.90
55083;DHT22;40978;52.850;6.506;2023-04-24T02:02:33;10.00;99.90
55083;DHT22;40978;52.850;6.506;2023-04-24T02:04:59;9.90;99.90
55083;DHT22;40978;52.850;6.506;2023-04-24T02:07:24;9.90;99.90
55083;DHT22;40978;52.850;6.506;2023-04-24T02:09:50;9.90;99.90
55083;DHT22;40978;52.850;6.506;2023-04-24T02:12:16;9.90;99.90
55083;DHT22;40978;52.850;6.506;2023-04-24T02:14:43;9.90;99.90
55083;DHT22;40978;52.850;6.506;2023-04-24T02:17:12;9.80;99.90
55083;DHT22;40978;52.850;6.506;2023-04-24T02:19:40;9.80;99.90
55083;DHT22;40978;52.850;6.506;2023-04-24T02:22:06;9.80;99.90
55083;DHT22;40978;52.850;6.506;2023-04-24T02:24:32;9.80;99.90
55083;DHT22;40978;52.850;6.506;2023-04-24T02:26:57;9.70;99.90
55083;DHT22;40978;52.850;6.506;2023-04-24T02:29:23;9.70;99.90
55083;DHT22;40978;52.850;6.506;2023-04-24T02:31:49;9.70;99.90
55083;DHT22;40978;52.850;6.506;2023-04-24T02:34:15;9.70;99.90
55083;DHT22;40978;52.850;6.506;2023-04-24T02:36:41;9.70;99.90
55083;DHT22;40978;52.850;6.506;2023-04-24T02:39:07;9.70;99.90
55083;DHT22;40978;52.850;6.506;2023-04-24T02:41:34;9.60;99.90
55083;DHT22;40978;52.850;6.506;2023-04-24T02:43:59;9.60;99.90
55083;DHT22;40978;52.850;6.506;2023-04-24T02:46:25;9.60;99.90
55083;DHT22;40978;52.850;6.506;2023-04-24T02:48:51;9.60;99.90
55083;DHT22;40978;52.850;6.506;2023-04-24T02:51:17;9.60;99.90
55083;DHT22;40978;52.850;6.506;2023-04-24T02:53:43;9.60;99.90
55083;DHT22;40978;52.850;6.506;2023-04-24T02:56:08;9.60;99.90
55083;DHT22;40978;52.850;6.506;2023-04-24T02:58:37;9.60;99.90
55083;DHT22;40978;52.850;6.506;2023-04-24T03:01:03;9.60;99.90
55083;DHT22;40978;52.850;6.506;2023-04-24T03:03:30;9.60;99.90
55083;DHT22;40978;52.850;6.506;2023-04-24T03:05:56;9.50;99.90
55083;DHT22;40978;52.850;6.506;2023-04-24T03:08:22;9.50;99.90
55083;DHT22;40978;52.850;6.506;2023-04-24T03:10:48;9.50;99.90
55083;DHT22;40978;52.850;6.506;2023-04-24T03:13:15;9.50;99.90
55083;DHT22;40978;52.850;6.506;2023-04-24T03:15:41;9.50;99.90
55083;DHT22;40978;52.850;6.506;2023-04-24T03:18:06;9.50;99.90
55083;DHT22;40978;52.850;6.506;2023-04-24T03:20:32;9.50;99.90
55083;DHT22;40978;52.850;6.506;2023-04-24T03:22:58;9.50;99.90
55083;DHT22;40978;52.850;6.506;2023-04-24T03:25:23;9.40;99.90
55083;DHT22;40978;52.850;6.506;2023-04-24T03:27:49;9.50;99.90
55083;DHT22;40978;52.850;6.506;2023-04-24T03:30:15;9.50;99.90
55083;DHT22;40978;52.850;6.506;2023-04-24T03:32:41;9.40;99.90
55083;DHT22;40978;52.850;6.506;2023-04-24T03:35:07;9.40;99.90
55083;DHT22;40978;52.850;6.506;2023-04-24T03:37:33;9.40;99.90
55083;DHT22;40978;52.850;6.506;2023-04-24T03:40:00;9.50;99.90
55083;DHT22;40978;52.850;6.506;2023-04-24T03:42:26;9.40;99.90
55083;DHT22;40978;52.850;6.506;2023-04-24T03:44:51;9.40;99.90
55083;DHT22;40978;52.850;6.506;2023-04-24T03:47:17;9.40;99.90
55083;DHT22;40978;52.850;6.506;2023-04-24T03:49:43;9.40;99.90
55083;DHT22;40978;52.850;6.506;2023-04-24T03:52:08;9.40;99.90
55083;DHT22;40978;52.850;6.506;2023-04-24T03:54:34;9.40;99.90
55083;DHT22;40978;52.850;6.506;2023-04-24T03:57:00;9.40;99.90
55083;DHT22;40978;52.850;6.506;2023-04-24T03:59:26;9.40;99.90
55083;DHT22;40978;52.850;6.506;2023-04-24T04:01:52;9.40;99.90
55083;DHT22;40978;52.850;6.506;2023-04-24T04:04:18;9.40;99.90
55083;DHT22;40978;52.850;6.506;2023-04-24T04:06:44;9.50;99.90
55083;DHT22;40978;52.850;6.506;2023-04-24T04:09:10;9.50;99.90
55083;DHT22;40978;52.850;6.506;2023-04-24T04:11:36;9.50;99.90
55083;DHT22;40978;52.850;6.506;2023-04-24T04:14:02;9.50;99.90
55083;DHT22;40978;52.850;6.506;2023-04-24T04:16:27;9.40;99.90
55083;DHT22;40978;52.850;6.506;2023-04-24T04:18:53;9.40;99.90
55083;DHT22;40978;52.850;6.506;2023-04-24T04:21:19;9.50;99.90
55083;DHT22;40978;52.850;6.506;2023-04-24T04:23:44;9.40;99.90
55083;DHT22;40978;52.850;6.506;2023-04-24T04:26:11;9.50;99.90
55083;DHT22;40978;52.850;6.506;2023-04-24T04:28:38;9.40;99.90
55083;DHT22;40978;52.850;6.506;2023-04-24T04:31:04;9.40;99.90
55083;DHT22;40978;52.850;6.506;2023-04-24T04:33:30;9.40;99.90
55083;DHT22;40978;52.850;6.506;2023-04-24T04:35:57;9.40;99.90
55083;DHT22;40978;52.850;6.506;2023-04-24T04:38:24;9.30;99.90
55083;DHT22;40978;52.850;6.506;2023-04-24T04:40:52;9.30;99.90
55083;DHT22;40978;52.850;6.506;2023-04-24T04:43:17;9.30;99.90
55083;DHT22;40978;52.850;6.506;2023-04-24T04:45:43;9.30;99.90
55083;DHT22;40978;52.850;6.506;2023-04-24T04:48:10;9.30;99.90
55083;DHT22;40978;52.850;6.506;2023-04-24T04:50:38;9.30;99.90
55083;DHT22;40978;52.850;6.506;2023-04-24T04:53:04;9.30;99.90
55083;DHT22;40978;52.850;6.506;2023-04-24T04:55:30;9.30;99.90
55083;DHT22;40978;52.850;6.506;2023-04-24T04:57:56;9.30;99.90
55083;DHT22;40978;52.850;6.506;2023-04-24T05:00:22;9.40;99.90
55083;DHT22;40978;52.850;6.506;2023-04-24T05:02:51;9.40;99.90
55083;DHT22;40978;52.850;6.506;2023-04-24T05:05:17;9.40;99.90
55083;DHT22;40978;52.850;6.506;2023-04-24T05:07:43;9.30;99.90
55083;DHT22;40978;52.850;6.506;2023-04-24T05:10:10;9.30;99.90
55083;DHT22;40978;52.850;6.506;2023-04-24T05:12:36;9.40;99.90
55083;DHT22;40978;52.850;6.506;2023-04-24T05:15:02;9.40;99.90
55083;DHT22;40978;52.850;6.506;2023-04-24T05:17:28;9.40;99.90
55083;DHT22;40978;52.850;6.506;2023-04-24T05:19:54;9.30;99.90
55083;DHT22;40978;52.850;6.506;2023-04-24T05:22:20;9.40;99.90
55083;DHT22;40978;52.850;6.506;2023-04-24T05:24:46;9.30;99.90
55083;DHT22;40978;52.850;6.506;2023-04-24T05:27:12;9.30;99.90
55083;DHT22;40978;52.850;6.506;2023-04-24T05:29:38;9.30;99.90
55083;DHT22;40978;52.850;6.506;2023-04-24T05:32:04;9.30;99.90
55083;DHT22;40978;52.850;6.506;2023-04-24T05:34:30;9.30;99.90
55083;DHT22;40978;52.850;6.506;2023-04-24T05:36:55;9.40;99.90
55083;DHT22;40978;52.850;6.506;2023-04-24T05:39:21;9.40;99.90
55083;DHT22;40978;52.850;6.506;2023-04-24T05:41:47;9.30;99.90
55083;DHT22;40978;52.850;6.506;2023-04-24T05:44:13;9.40;99.90
55083;DHT22;40978;52.850;6.506;2023-04-24T05:46:38;9.30;99.90
55083;DHT22;40978;52.850;6.506;2023-04-24T05:49:04;9.40;99.90
55083;DHT22;40978;52.850;6.506;2023-04-24T05:51:30;9.40;99.90
55083;DHT22;40978;52.850;6.506;2023-04-24T05:53:57;9.40;99.90
55083;DHT22;40978;52.850;6.506;2023-04-24T05:56:23;9.40;99.90
55083;DHT22;40978;52.850;6.506;2023-04-24T05:58:49;9.50;99.90
55083;DHT22;40978;52.850;6.506;2023-04-24T06:01:14;9.50;99.90
55083;DHT22;40978;52.850;6.506;2023-04-24T06:03:41;9.60;99.90
55083;DHT22;40978;52.850;6.506;2023-04-24T06:06:08;9.60;99.90
55083;DHT22;40978;52.850;6.506;2023-04-24T06:08:34;9.70;99.90
55083;DHT22;40978;52.850;6.506;2023-04-24T06:11:00;9.70;99.90
55083;DHT22;40978;52.850;6.506;2023-04-24T06:13:26;9.70;99.90
55083;DHT22;40978;52.850;6.506;2023-04-24T06:15:52;9.80;99.90
55083;DHT22;40978;52.850;6.506;2023-04-24T06:18:18;9.80;99.90
55083;DHT22;40978;52.850;6.506;2023-04-24T06:20:45;9.80;99.90
55083;DHT22;40978;52.850;6.506;2023-04-24T06:23:11;9.80;99.90
55083;DHT22;40978;52.850;6.506;2023-04-24T06:25:37;9.90;99.90
55083;DHT22;40978;52.850;6.506;2023-04-24T06:28:03;9.90;99.90
55083;DHT22;40978;52.850;6.506;2023-04-24T06:30:29;9.90;99.90
55083;DHT22;40978;52.850;6.506;2023-04-24T06:32:54;9.90;99.90
55083;DHT22;40978;52.850;6.506;2023-04-24T06:35:20;9.90;99.90
55083;DHT22;40978;52.850;6.506;2023-04-24T06:37:46;9.90;99.90
55083;DHT22;40978;52.850;6.506;2023-04-24T06:40:12;9.90;99.90
55083;DHT22;40978;52.850;6.506;2023-04-24T06:42:38;9.90;99.90
55083;DHT22;40978;52.850;6.506;2023-04-24T06:45:05;9.90;99.90
55083;DHT22;40978;52.850;6.506;2023-04-24T06:47:31;9.90;99.90
55083;DHT22;40978;52.850;6.506;2023-04-24T06:49:57;9.90;99.90
55083;DHT22;40978;52.850;6.506;2023-04-24T06:52:22;9.90;99.90
55083;DHT22;40978;52.850;6.506;2023-04-24T06:54:49;9.90;99.90
55083;DHT22;40978;52.850;6.506;2023-04-24T06:57:14;9.90;99.90
55083;DHT22;40978;52.850;6.506;2023-04-24T06:59:42;9.90;99.90
55083;DHT22;40978;52.850;6.506;2023-04-24T07:02:08;9.90;99.90
55083;DHT22;40978;52.850;6.506;2023-04-24T07:04:34;9.90;99.90
55083;DHT22;40978;52.850;6.506;2023-04-24T07:07:00;9.90;99.90
55083;DHT22;40978;52.850;6.506;2023-04-24T07:09:26;9.90;99.90
55083;DHT22;40978;52.850;6.506;2023-04-24T07:11:53;9.90;99.90
55083;DHT22;40978;52.850;6.506;2023-04-24T07:14:19;9.90;99.90
55083;DHT22;40978;52.850;6.506;2023-04-24T07:16:48;9.90;99.90
55083;DHT22;40978;52.850;6.506;2023-04-24T07:19:14;9.90;99.90
55083;DHT22;40978;52.850;6.506;2023-04-24T07:21:40;9.80;99.90
55083;DHT22;40978;52.850;6.506;2023-04-24T07:24:06;9.90;99.90
55083;DHT22;40978;52.850;6.506;2023-04-24T07:26:36;9.80;99.90
55083;DHT22;40978;52.850;6.506;2023-04-24T07:29:02;9.80;99.90
55083;DHT22;40978;52.850;6.506;2023-04-24T07:31:28;9.80;99.90
55083;DHT22;40978;52.850;6.506;2023-04-24T07:33:54;9.80;99.90
55083;DHT22;40978;52.850;6.506;2023-04-24T07:36:23;9.80;99.90
55083;DHT22;40978;52.850;6.506;2023-04-24T07:38:49;9.70;99.90
55083;DHT22;40978;52.850;6.506;2023-04-24T07:41:15;9.80;99.90
55083;DHT22;40978;52.850;6.506;2023-04-24T07:43:41;9.70;99.90
55083;DHT22;40978;52.850;6.506;2023-04-24T07:46:08;9.80;99.90
55083;DHT22;40978;52.850;6.506;2023-04-24T07:48:33;9.70;99.90
55083;DHT22;40978;52.850;6.506;2023-04-24T07:50:59;9.60;99.90
55083;DHT22;40978;52.850;6.506;2023-04-24T07:53:25;9.60;99.90
55083;DHT22;40978;52.850;6.506;2023-04-24T07:55:51;9.60;99.90
55083;DHT22;40978;52.850;6.506;2023-04-24T07:58:16;9.60;99.90
55083;DHT22;40978;52.850;6.506;2023-04-24T08:00:42;9.60;99.90
55083;DHT22;40978;52.850;6.506;2023-04-24T08:03:08;9.60;99.90
55083;DHT22;40978;52.850;6.506;2023-04-24T08:05:34;9.60;99.90
55083;DHT22;40978;52.850;6.506;2023-04-24T08:08:00;9.60;99.90
55083;DHT22;40978;52.850;6.506;2023-04-24T08:10:26;9.60;99.90
55083;DHT22;40978;52.850;6.506;2023-04-24T08:12:51;9.60;99.90
55083;DHT22;40978;52.850;6.506;2023-04-24T08:15:17;9.60;99.90
55083;DHT22;40978;52.850;6.506;2023-04-24T08:17:43;9.60;99.90
55083;DHT22;40978;52.850;6.506;2023-04-24T08:20:10;9.60;99.90
55083;DHT22;40978;52.850;6.506;2023-04-24T08:22:40;9.50;99.90
55083;DHT22;40978;52.850;6.506;2023-04-24T08:25:07;9.50;99.90
55083;DHT22;40978;52.850;6.506;2023-04-24T08:27:32;9.50;99.90
55083;DHT22;40978;52.850;6.506;2023-04-24T08:29:58;9.40;99.90
55083;DHT22;40978;52.850;6.506;2023-04-24T08:32:25;9.40;99.90
55083;DHT22;40978;52.850;6.506;2023-04-24T08:34:55;9.30;99.90
55083;DHT22;40978;52.850;6.506;2023-04-24T08:37:22;9.30;99.90
55083;DHT22;40978;52.850;6.506;2023-04-24T08:39:49;9.30;99.90
55083;DHT22;40978;52.850;6.506;2023-04-24T08:42:16;9.30;99.90
55083;DHT22;40978;52.850;6.506;2023-04-24T08:44:43;9.30;99.90
55083;DHT22;40978;52.850;6.506;2023-04-24T08:47:10;9.20;99.90
55083;DHT22;40978;52.850;6.506;2023-04-24T08:49:37;9.20;99.90
55083;DHT22;40978;52.850;6.506;2023-04-24T08:52:04;9.10;99.90
55083;DHT22;40978;52.850;6.506;2023-04-24T08:54:31;9.10;99.90
55083;DHT22;40978;52.850;6.506;2023-04-24T08:57:01;9.10;99.90
55083;DHT22;40978;52.850;6.506;2023-04-24T08:59:29;9.00;99.90
55083;DHT22;40978;52.850;6.506;2023-04-24T09:01:56;9.00;99.90
55083;DHT22;40978;52.850;6.506;2023-04-24T09:04:23;9.00;99.90
55083;DHT22;40978;52.850;6.506;2023-04-24T09:06:57;8.90;99.90
55083;DHT22;40978;52.850;6.506;2023-04-24T09:09:24;8.90;99.90
55083;DHT22;40978;52.850;6.506;2023-04-24T09:11:51;8.80;99.90
55083;DHT22;40978;52.850;6.506;2023-04-24T09:14:19;8.80;99.90
55083;DHT22;40978;52.850;6.506;2023-04-24T09:16:45;8.90;99.90
55083;DHT22;40978;52.850;6.506;2023-04-24T09:19:11;8.90;99.90
55083;DHT22;40978;52.850;6.506;2023-04-24T09:21:37;8.90;99.90
55083;DHT22;40978;52.850;6.506;2023-04-24T09:24:14;8.90;99.90
55083;DHT22;40978;52.850;6.506;2023-04-24T09:26:40;8.90;99.90
55083;DHT22;40978;52.850;6.506;2023-04-24T09:29:06;8.90;99.90
55083;DHT22;40978;52.850;6.506;2023-04-24T09:31:31;8.90;99.90
55083;DHT22;40978;52.850;6.506;2023-04-24T09:34:01;9.00;99.90
55083;DHT22;40978;52.850;6.506;2023-04-24T09:36:36;9.00;99.90
55083;DHT22;40978;52.850;6.506;2023-04-24T09:39:07;9.10;99.90
55083;DHT22;40978;52.850;6.506;2023-04-24T09:41:34;9.10;99.90
55083;DHT22;40978;52.850;6.506;2023-04-24T09:46:40;9.00;99.90
55083;DHT22;40978;52.850;6.506;2023-04-24T09:49:13;9.00;99.90
55083;DHT22;40978;52.850;6.506;2023-04-24T09:51:41;9.00;99.90
55083;DHT22;40978;52.850;6.506;2023-04-24T09:54:17;8.90;99.90
55083;DHT22;40978;52.850;6.506;2023-04-24T09:56:48;8.90;99.90
55083;DHT22;40978;52.850;6.506;2023-04-24T09:59:17;8.90;99.90
55083;DHT22;40978;52.850;6.506;2023-04-24T10:01:43;8.90;99.90
55083;DHT22;40978;52.850;6.506;2023-04-24T10:04:22;8.90;99.90
55083;DHT22;40978;52.850;6.506;2023-04-24T10:06:49;9.00;99.90
55083;DHT22;40978;52.850;6.506;2023-04-24T10:09:23;9.00;99.90
55083;DHT22;40978;52.850;6.506;2023-04-24T10:11:50;9.10;99.90
55083;DHT22;40978;52.850;6.506;2023-04-24T10:14:24;9.20;99.90
55083;DHT22;40978;52.850;6.506;2023-04-24T10:16:53;9.20;99.90
55083;DHT22;40978;52.850;6.506;2023-04-24T10:19:19;9.30;99.90
55083;DHT22;40978;52.850;6.506;2023-04-24T10:21:45;9.30;99.90
55083;DHT22;40978;52.850;6.506;2023-04-24T10:24:15;9.30;99.90
55083;DHT22;40978;52.850;6.506;2023-04-24T10:26:41;9.30;99.90
55083;DHT22;40978;52.850;6.506;2023-04-24T10:29:07;9.20;99.90
55083;DHT22;40978;52.850;6.506;2023-04-24T10:31:36;9.20;99.90
55083;DHT22;40978;52.850;6.506;2023-04-24T10:34:04;9.10;99.90
55083;DHT22;40978;52.850;6.506;2023-04-24T10:36:31;9.00;99.90
55083;DHT22;40978;52.850;6.506;2023-04-24T10:39:00;9.00;99.90
55083;DHT22;40978;52.850;6.506;2023-04-24T10:41:26;9.00;99.90
55083;DHT22;40978;52.850;6.506;2023-04-24T10:44:08;8.90;99.90
55083;DHT22;40978;52.850;6.506;2023-04-24T10:46:35;8.90;99.90
55083;DHT22;40978;52.850;6.506;2023-04-24T10:49:10;8.90;99.90
55083;DHT22;40978;52.850;6.506;2023-04-24T10:51:50;8.80;99.90
55083;DHT22;40978;52.850;6.506;2023-04-24T10:54:46;8.80;99.90
55083;DHT22;40978;52.850;6.506;2023-04-24T10:59:44;8.90;99.90
55083;DHT22;40978;52.850;6.506;2023-04-24T11:02:10;9.00;99.90
55083;DHT22;40978;52.850;6.506;2023-04-24T11:04:36;9.20;99.90
55083;DHT22;40978;52.850;6.506;2023-04-24T11:07:05;9.30;99.90
55083;DHT22;40978;52.850;6.506;2023-04-24T11:09:32;9.40;99.90
55083;DHT22;40978;52.850;6.506;2023-04-24T11:12:09;9.40;99.90
55083;DHT22;40978;52.850;6.506;2023-04-24T11:17:32;9.30;99.90
55083;DHT22;40978;52.850;6.506;2023-04-24T11:20:07;9.20;99.90
55083;DHT22;40978;52.850;6.506;2023-04-24T11:22:33;9.10;99.90
55083;DHT22;40978;52.850;6.506;2023-04-24T11:25:01;9.00;99.90
55083;DHT22;40978;52.850;6.506;2023-04-24T11:27:31;9.10;99.90
55083;DHT22;40978;52.850;6.506;2023-04-24T11:29:59;9.10;99.90
55083;DHT22;40978;52.850;6.506;2023-04-24T11:35:13;9.30;99.90
55083;DHT22;40978;52.850;6.506;2023-04-24T11:37:41;9.30;99.90
55083;DHT22;40978;52.850;6.506;2023-04-24T11:40:09;9.40;99.90
55083;DHT22;40978;52.850;6.506;2023-04-24T11:42:37;9.50;99.90
55083;DHT22;40978;52.850;6.506;2023-04-24T11:45:08;9.50;99.90
55083;DHT22;40978;52.850;6.506;2023-04-24T11:47:35;9.60;99.90
55083;DHT22;40978;52.850;6.506;2023-04-24T11:50:01;9.60;99.90
55083;DHT22;40978;52.850;6.506;2023-04-24T11:52:28;9.60;99.90
55083;DHT22;40978;52.850;6.506;2023-04-24T11:54:54;9.60;99.90
55083;DHT22;40978;52.850;6.506;2023-04-24T11:57:20;9.50;99.90
55083;DHT22;40978;52.850;6.506;2023-04-24T11:59:47;9.40;99.90
55083;DHT22;40978;52.850;6.506;2023-04-24T12:02:26;9.20;99.90
55083;DHT22;40978;52.850;6.506;2023-04-24T12:04:55;9.20;99.90
55083;DHT22;40978;52.850;6.506;2023-04-24T12:07:22;9.20;99.90
55083;DHT22;40978;52.850;6.506;2023-04-24T12:09:54;9.20;99.90
55083;DHT22;40978;52.850;6.506;2023-04-24T12:12:20;9.20;99.90
55083;DHT22;40978;52.850;6.506;2023-04-24T12:14:56;9.30;99.90
55083;DHT22;40978;52.850;6.506;2023-04-24T12:17:30;9.40;99.90
55083;DHT22;40978;52.850;6.506;2023-04-24T12:20:01;9.50;99.90
55083;DHT22;40978;52.850;6.506;2023-04-24T12:22:28;9.50;99.90
55083;DHT22;40978;52.850;6.506;2023-04-24T12:24:58;9.60;99.90
55083;DHT22;40978;52.850;6.506;2023-04-24T12:27:25;9.70;99.90
55083;DHT22;40978;52.850;6.506;2023-04-24T12:29:56;9.70;99.90
55083;DHT22;40978;52.850;6.506;2023-04-24T12:32:22;9.80;99.90
55083;DHT22;40978;52.850;6.506;2023-04-24T12:34:49;9.80;99.90
55083;DHT22;40978;52.850;6.506;2023-04-24T12:37:16;9.90;99.90
55083;DHT22;40978;52.850;6.506;2023-04-24T12:40:06;10.00;99.90
55083;DHT22;40978;52.850;6.506;2023-04-24T12:42:32;10.10;99.90
55083;DHT22;40978;52.850;6.506;2023-04-24T12:45:06;10.20;99.90
55083;DHT22;40978;52.850;6.506;2023-04-24T12:47:33;10.40;99.90
55083;DHT22;40978;52.850;6.506;2023-04-24T12:49:59;10.50;99.90
55083;DHT22;40978;52.850;6.506;2023-04-24T12:52:27;10.60;99.90
55083;DHT22;40978;52.850;6.506;2023-04-24T12:54:53;10.70;99.90
55083;DHT22;40978;52.850;6.506;2023-04-24T12:57:20;10.70;99.90
55083;DHT22;40978;52.850;6.506;2023-04-24T12:59:46;10.60;99.90
55083;DHT22;40978;52.850;6.506;2023-04-24T13:02:12;10.40;99.90
55083;DHT22;40978;52.850;6.506;2023-04-24T13:04:38;10.20;99.90
55083;DHT22;40978;52.850;6.506;2023-04-24T13:07:04;9.90;99.90
55083;DHT22;40978;52.850;6.506;2023-04-24T13:09:30;9.80;99.90
55083;DHT22;40978;52.850;6.506;2023-04-24T13:11:56;9.60;99.90
55083;DHT22;40978;52.850;6.506;2023-04-24T13:14:23;9.50;99.90
55083;DHT22;40978;52.850;6.506;2023-04-24T13:16:49;9.50;99.90
55083;DHT22;40978;52.850;6.506;2023-04-24T13:19:15;9.50;99.90
55083;DHT22;40978;52.850;6.506;2023-04-24T13:21:40;9.60;99.90
55083;DHT22;40978;52.850;6.506;2023-04-24T13:24:06;9.70;99.90
55083;DHT22;40978;52.850;6.506;2023-04-24T13:26:33;9.70;99.90
55083;DHT22;40978;52.850;6.506;2023-04-24T13:28:59;9.80;99.90
55083;DHT22;40978;52.850;6.506;2023-04-24T13:31:25;9.80;99.90
55083;DHT22;40978;52.850;6.506;2023-04-24T13:33:51;9.80;99.90
55083;DHT22;40978;52.850;6.506;2023-04-24T13:36:17;9.80;99.90
55083;DHT22;40978;52.850;6.506;2023-04-24T13:38:44;9.70;99.90
55083;DHT22;40978;52.850;6.506;2023-04-24T13:41:10;9.60;99.90
55083;DHT22;40978;52.850;6.506;2023-04-24T13:43:36;9.50;99.90
55083;DHT22;40978;52.850;6.506;2023-04-24T13:46:01;9.40;99.90
55083;DHT22;40978;52.850;6.506;2023-04-24T13:48:29;9.30;99.90
55083;DHT22;40978;52.850;6.506;2023-04-24T13:50:55;9.10;99.90
55083;DHT22;40978;52.850;6.506;2023-04-24T13:53:20;9.00;99.90
55083;DHT22;40978;52.850;6.506;2023-04-24T13:55:46;9.00;99.90
55083;DHT22;40978;52.850;6.506;2023-04-24T13:58:12;9.00;99.90
55083;DHT22;40978;52.850;6.506;2023-04-24T14:00:38;8.90;99.90
55083;DHT22;40978;52.850;6.506;2023-04-24T14:03:04;8.90;99.90
55083;DHT22;40978;52.850;6.506;2023-04-24T14:05:29;9.00;99.90
55083;DHT22;40978;52.850;6.506;2023-04-24T14:07:55;8.90;99.90
55083;DHT22;40978;52.850;6.506;2023-04-24T14:10:21;9.00;99.90
55083;DHT22;40978;52.850;6.506;2023-04-24T14:12:46;9.10;99.90
55083;DHT22;40978;52.850;6.506;2023-04-24T14:15:12;9.10;99.90
55083;DHT22;40978;52.850;6.506;2023-04-24T14:17:39;9.10;99.90
55083;DHT22;40978;52.850;6.506;2023-04-24T14:20:05;9.20;99.90
55083;DHT22;40978;52.850;6.506;2023-04-24T14:22:32;9.30;99.90
55083;DHT22;40978;52.850;6.506;2023-04-24T14:24:58;9.40;99.90
55083;DHT22;40978;52.850;6.506;2023-04-24T14:27:24;9.40;99.90
55083;DHT22;40978;52.850;6.506;2023-04-24T14:29:52;9.40;99.90
55083;DHT22;40978;52.850;6.506;2023-04-24T14:32:18;9.40;99.90
55083;DHT22;40978;52.850;6.506;2023-04-24T14:34:43;9.40;99.90
55083;DHT22;40978;52.850;6.506;2023-04-24T14:37:09;9.30;99.90
55083;DHT22;40978;52.850;6.506;2023-04-24T14:39:35;9.30;99.90
55083;DHT22;40978;52.850;6.506;2023-04-24T14:42:00;9.30;99.90
55083;DHT22;40978;52.850;6.506;2023-04-24T14:44:26;9.30;99.90
55083;DHT22;40978;52.850;6.506;2023-04-24T14:46:52;9.20;99.90
55083;DHT22;40978;52.850;6.506;2023-04-24T14:49:18;9.30;99.90
55083;DHT22;40978;52.850;6.506;2023-04-24T14:51:44;9.30;99.90
55083;DHT22;40978;52.850;6.506;2023-04-24T14:54:10;9.30;99.90
55083;DHT22;40978;52.850;6.506;2023-04-24T14:56:36;9.40;99.90
55083;DHT22;40978;52.850;6.506;2023-04-24T14:59:02;9.50;99.90
55083;DHT22;40978;52.850;6.506;2023-04-24T15:01:29;9.60;99.90
55083;DHT22;40978;52.850;6.506;2023-04-24T15:03:55;9.70;99.90
55083;DHT22;40978;52.850;6.506;2023-04-24T15:06:20;9.70;99.90
55083;DHT22;40978;52.850;6.506;2023-04-24T15:08:46;9.70;99.90
55083;DHT22;40978;52.850;6.506;2023-04-24T15:11:12;9.70;99.90
55083;DHT22;40978;52.850;6.506;2023-04-24T15:13:38;9.70;99.90
55083;DHT22;40978;52.850;6.506;2023-04-24T15:16:04;9.70;99.90
55083;DHT22;40978;52.850;6.506;2023-04-24T15:18:30;9.70;99.90
55083;DHT22;40978;52.850;6.506;2023-04-24T15:20:56;9.80;99.90
55083;DHT22;40978;52.850;6.506;2023-04-24T15:23:22;9.90;99.90
55083;DHT22;40978;52.850;6.506;2023-04-24T15:25:48;10.00;99.90
55083;DHT22;40978;52.850;6.506;2023-04-24T15:28:13;10.20;99.90
55083;DHT22;40978;52.850;6.506;2023-04-24T15:30:40;10.20;99.90
55083;DHT22;40978;52.850;6.506;2023-04-24T15:33:06;10.10;99.90
55083;DHT22;40978;52.850;6.506;2023-04-24T15:35:32;10.00;99.90
55083;DHT22;40978;52.850;6.506;2023-04-24T15:37:57;9.80;99.90
55083;DHT22;40978;52.850;6.506;2023-04-24T15:40:23;9.50;99.90
55083;DHT22;40978;52.850;6.506;2023-04-24T15:42:49;9.40;99.90
55083;DHT22;40978;52.850;6.506;2023-04-24T15:45:15;9.30;99.90
55083;DHT22;40978;52.850;6.506;2023-04-24T15:47:41;9.30;99.90
55083;DHT22;40978;52.850;6.506;2023-04-24T15:50:07;9.20;99.90
55083;DHT22;40978;52.850;6.506;2023-04-24T15:52:35;9.20;99.90